sensor_id;sensor_type;location;lat;lon;timestamp;pressure;altitude;pressure_sealevel;temperature;humidity
9059;BME280;4564;42.034;25.834;2023-04-15T00:00:59;99546.38;;;12.74;100.00
9059;BME280;4564;42.034;25.834;2023-04-15T00:03:26;99557.63;;;12.77;100.00
9059;BME280;4564;42.034;25.834;2023-04-15T00:05:53;99526.31;;;12.93;100.00
9059;BME280;4564;42.034;25.834;2023-04-15T00:08:20;99511.22;;;12.90;100.00
9059;BME280;4564;42.034;25.834;2023-04-15T00:10:47;99492.00;;;12.85;100.00
9059;BME280;4564;42.034;25.834;2023-04-15T00:13:15;99512.47;;;12.94;100.00
9059;BME280;4564;42.034;25.834;2023-04-15T00:15:42;99523.38;;;12.94;100.00
9059;BME280;4564;42.034;25.834;2023-04-15T00:18:08;99520.25;;;12.91;100.00
9059;BME280;4564;42.034;25.834;2023-04-15T00:20:35;99517.59;;;12.84;100.00
9059;BME280;4564;42.034;25.834;2023-04-15T00:23:02;99518.91;;;12.75;100.00
9059;BME280;4564;42.034;25.834;2023-04-15T00:25:29;99503.59;;;12.74;100.00
9059;BME280;4564;42.034;25.834;2023-04-15T00:27:56;99487.94;;;12.70;100.00
9059;BME280;4564;42.034;25.834;2023-04-15T00:30:24;99475.84;;;12.66;100.00
9059;BME280;4564;42.034;25.834;2023-04-15T00:32:51;99487.56;;;12.66;100.00
9059;BME280;4564;42.034;25.834;2023-04-15T00:35:17;99507.06;;;12.63;100.00
9059;BME280;4564;42.034;25.834;2023-04-15T00:37:45;99501.22;;;12.59;100.00
9059;BME280;4564;42.034;25.834;2023-04-15T00:40:11;99489.56;;;12.77;100.00
9059;BME280;4564;42.034;25.834;2023-04-15T00:42:38;99487.72;;;12.71;100.00
9059;BME280;4564;42.034;25.834;2023-04-15T00:45:05;99477.13;;;12.63;100.00
9059;BME280;4564;42.034;25.834;2023-04-15T00:47:34;99478.84;;;12.57;100.00
9059;BME280;4564;42.034;25.834;2023-04-15T00:50:01;99476.41;;;12.43;100.00
9059;BME280;4564;42.034;25.834;2023-04-15T00:52:29;99482.97;;;12.35;100.00
9059;BME280;4564;42.034;25.834;2023-04-15T00:54:56;99478.59;;;12.28;100.00
9059;BME280;4564;42.034;25.834;2023-04-15T00:57:22;99481.59;;;12.19;100.00
9059;BME280;4564;42.034;25.834;2023-04-15T00:59:49;99481.63;;;12.13;100.00
9059;BME280;4564;42.034;25.834;2023-04-15T01:02:17;99484.53;;;12.11;100.00
9059;BME280;4564;42.034;25.834;2023-04-15T01:04:45;99492.06;;;12.09;100.00
9059;BME280;4564;42.034;25.834;2023-04-15T01:07:12;99490.31;;;12.28;100.00
9059;BME280;4564;42.034;25.834;2023-04-15T01:09:39;99496.78;;;12.34;100.00
9059;BME280;4564;42.034;25.834;2023-04-15T01:12:05;99499.72;;;12.26;100.00
9059;BME280;4564;42.034;25.834;2023-04-15T01:14:32;99504.13;;;12.27;100.00
9059;BME280;4564;42.034;25.834;2023-04-15T01:16:59;99507.84;;;12.39;100.00
9059;BME280;4564;42.034;25.834;2023-04-15T01:19:26;99515.53;;;12.42;100.00
9059;BME280;4564;42.034;25.834;2023-04-15T01:21:54;99509.88;;;12.50;100.00
9059;BME280;4564;42.034;25.834;2023-04-15T01:24:21;99506.06;;;12.57;100.00
9059;BME280;4564;42.034;25.834;2023-04-15T01:26:49;99501.25;;;12.53;100.00
9059;BME280;4564;42.034;25.834;2023-04-15T01:29:17;99503.56;;;12.56;100.00
9059;BME280;4564;42.034;25.834;2023-04-15T01:31:48;99496.09;;;12.70;100.00
9059;BME280;4564;42.034;25.834;2023-04-15T01:34:15;99494.22;;;12.70;100.00
9059;BME280;4564;42.034;25.834;2023-04-15T01:36:41;99494.44;;;12.69;100.00
9059;BME280;4564;42.034;25.834;2023-04-15T01:39:08;99498.78;;;12.76;100.00
9059;BME280;4564;42.034;25.834;2023-04-15T01:41:35;99513.03;;;12.78;100.00
9059;BME280;4564;42.034;25.834;2023-04-15T01:44:03;99511.31;;;12.84;100.00
9059;BME280;4564;42.034;25.834;2023-04-15T01:46:31;99511.59;;;13.00;100.00
9059;BME280;4564;42.034;25.834;2023-04-15T01:48:57;99506.69;;;13.09;100.00
9059;BME280;4564;42.034;25.834;2023-04-15T01:51:24;99509.47;;;13.02;100.00
9059;BME280;4564;42.034;25.834;2023-04-15T01:53:51;99505.19;;;12.88;100.00
9059;BME280;4564;42.034;25.834;2023-04-15T01:56:18;99503.34;;;12.82;100.00
9059;BME280;4564;42.034;25.834;2023-04-15T01:58:44;99504.56;;;12.86;100.00
9059;BME280;4564;42.034;25.834;2023-04-15T02:01:12;99520.47;;;12.89;100.00
9059;BME280;4564;42.034;25.834;2023-04-15T02:03:39;99535.09;;;12.95;100.00
9059;BME280;4564;42.034;25.834;2023-04-15T02:06:06;99539.94;;;12.93;100.00
9059;BME280;4564;42.034;25.834;2023-04-15T02:08:32;99537.19;;;12.93;100.00
9059;BME280;4564;42.034;25.834;2023-04-15T02:10:59;99529.91;;;12.87;100.00
9059;BME280;4564;42.034;25.834;2023-04-15T02:13:26;99515.63;;;12.91;100.00
9059;BME280;4564;42.034;25.834;2023-04-15T02:15:53;99522.03;;;13.03;100.00
9059;BME280;4564;42.034;25.834;2023-04-15T02:18:21;99522.50;;;13.00;100.00
9059;BME280;4564;42.034;25.834;2023-04-15T02:20:49;99512.91;;;12.91;100.00
9059;BME280;4564;42.034;25.834;2023-04-15T02:23:16;99525.47;;;12.92;100.00
9059;BME280;4564;42.034;25.834;2023-04-15T02:25:43;99539.75;;;12.88;100.00
9059;BME280;4564;42.034;25.834;2023-04-15T02:28:09;99546.03;;;12.88;100.00
9059;BME280;4564;42.034;25.834;2023-04-15T02:30:36;99541.66;;;12.87;100.00
9059;BME280;4564;42.034;25.834;2023-04-15T02:33:05;99532.44;;;12.88;100.00
9059;BME280;4564;42.034;25.834;2023-04-15T02:35:33;99538.47;;;12.90;100.00
9059;BME280;4564;42.034;25.834;2023-04-15T02:38:02;99534.66;;;12.98;100.00
9059;BME280;4564;42.034;25.834;2023-04-15T02:40:28;99535.44;;;13.05;100.00
9059;BME280;4564;42.034;25.834;2023-04-15T02:42:55;99541.06;;;13.10;100.00
9059;BME280;4564;42.034;25.834;2023-04-15T02:45:22;99530.66;;;13.00;100.00
9059;BME280;4564;42.034;25.834;2023-04-15T02:47:51;99521.19;;;13.03;100.00
9059;BME280;4564;42.034;25.834;2023-04-15T02:50:18;99514.59;;;12.92;100.00
9059;BME280;4564;42.034;25.834;2023-04-15T02:52:46;99499.28;;;12.91;100.00
9059;BME280;4564;42.034;25.834;2023-04-15T02:55:13;99505.63;;;12.85;100.00
9059;BME280;4564;42.034;25.834;2023-04-15T02:57:39;99500.00;;;12.80;100.00
9059;BME280;4564;42.034;25.834;2023-04-15T03:00:06;99540.25;;;12.78;100.00
9059;BME280;4564;42.034;25.834;2023-04-15T03:02:35;99542.53;;;12.81;100.00
9059;BME280;4564;42.034;25.834;2023-04-15T03:05:02;99544.81;;;12.84;100.00
9059;BME280;4564;42.034;25.834;2023-04-15T03:07:30;99558.81;;;12.88;100.00
9059;BME280;4564;42.034;25.834;2023-04-15T03:09:58;99533.03;;;12.90;100.00
9059;BME280;4564;42.034;25.834;2023-04-15T03:12:24;99530.03;;;12.98;100.00
9059;BME280;4564;42.034;25.834;2023-04-15T03:14:51;99559.81;;;12.93;100.00
9059;BME280;4564;42.034;25.834;2023-04-15T03:17:17;99568.84;;;12.94;100.00
9059;BME280;4564;42.034;25.834;2023-04-15T03:19:44;99561.53;;;12.88;100.00
9059;BME280;4564;42.034;25.834;2023-04-15T03:22:10;99543.69;;;12.92;100.00
9059;BME280;4564;42.034;25.834;2023-04-15T03:24:37;99536.13;;;13.00;100.00
9059;BME280;4564;42.034;25.834;2023-04-15T03:27:05;99543.81;;;13.03;100.00
9059;BME280;4564;42.034;25.834;2023-04-15T03:29:32;99542.88;;;12.91;100.00
9059;BME280;4564;42.034;25.834;2023-04-15T03:31:59;99545.00;;;12.89;100.00
9059;BME280;4564;42.034;25.834;2023-04-15T03:34:25;99537.66;;;12.90;100.00
9059;BME280;4564;42.034;25.834;2023-04-15T03:36:52;99538.03;;;12.93;100.00
9059;BME280;4564;42.034;25.834;2023-04-15T03:39:19;99546.44;;;12.92;100.00
9059;BME280;4564;42.034;25.834;2023-04-15T03:41:45;99537.25;;;12.86;100.00
9059;BME280;4564;42.034;25.834;2023-04-15T03:44:13;99543.16;;;12.83;100.00
9059;BME280;4564;42.034;25.834;2023-04-15T03:46:40;99541.47;;;12.82;100.00
9059;BME280;4564;42.034;25.834;2023-04-15T03:49:06;99531.81;;;12.86;100.00
9059;BME280;4564;42.034;25.834;2023-04-15T03:51:33;99540.94;;;12.98;100.00
9059;BME280;4564;42.034;25.834;2023-04-15T03:54:00;99558.16;;;12.92;100.00
9059;BME280;4564;42.034;25.834;2023-04-15T03:56:27;99570.94;;;12.92;100.00
9059;BME280;4564;42.034;25.834;2023-04-15T03:58:54;99554.59;;;12.92;100.00
9059;BME280;4564;42.034;25.834;2023-04-15T04:01:22;99553.16;;;12.89;100.00
9059;BME280;4564;42.034;25.834;2023-04-15T04:03:48;99554.59;;;12.92;100.00
9059;BME280;4564;42.034;25.834;2023-04-15T04:06:15;99560.03;;;12.92;100.00
9059;BME280;4564;42.034;25.834;2023-04-15T04:08:41;99565.28;;;12.93;100.00
9059;BME280;4564;42.034;25.834;2023-04-15T04:11:08;99578.59;;;13.01;100.00
9059;BME280;4564;42.034;25.834;2023-04-15T04:13:35;99584.97;;;12.95;100.00
9059;BME280;4564;42.034;25.834;2023-04-15T04:16:02;99603.03;;;12.90;100.00
9059;BME280;4564;42.034;25.834;2023-04-15T04:18:30;99602.19;;;12.89;100.00
9059;BME280;4564;42.034;25.834;2023-04-15T04:20:57;99601.38;;;12.82;100.00
9059;BME280;4564;42.034;25.834;2023-04-15T04:23:24;99606.00;;;12.82;100.00
9059;BME280;4564;42.034;25.834;2023-04-15T04:25:50;99615.66;;;12.78;100.00
9059;BME280;4564;42.034;25.834;2023-04-15T04:28:17;99613.94;;;12.83;100.00
9059;BME280;4564;42.034;25.834;2023-04-15T04:30:44;99613.50;;;12.86;100.00
9059;BME280;4564;42.034;25.834;2023-04-15T04:33:11;99619.38;;;12.83;100.00
9059;BME280;4564;42.034;25.834;2023-04-15T04:35:39;99618.75;;;12.81;100.00
9059;BME280;4564;42.034;25.834;2023-04-15T04:38:05;99620.16;;;12.90;100.00
9059;BME280;4564;42.034;25.834;2023-04-15T04:40:32;99610.56;;;12.88;100.00
9059;BME280;4564;42.034;25.834;2023-04-15T04:42:59;99606.31;;;12.98;100.00
9059;BME280;4564;42.034;25.834;2023-04-15T04:45:25;99607.19;;;12.92;100.00
9059;BME280;4564;42.034;25.834;2023-04-15T04:47:52;99604.25;;;12.94;100.00
9059;BME280;4564;42.034;25.834;2023-04-15T04:50:19;99603.56;;;12.98;100.00
9059;BME280;4564;42.034;25.834;2023-04-15T04:52:46;99617.81;;;13.00;100.00
9059;BME280;4564;42.034;25.834;2023-04-15T04:55:13;99611.78;;;12.92;100.00
9059;BME280;4564;42.034;25.834;2023-04-15T04:57:40;99605.06;;;12.94;100.00
9059;BME280;4564;42.034;25.834;2023-04-15T05:00:07;99605.84;;;13.01;100.00
9059;BME280;4564;42.034;25.834;2023-04-15T05:02:35;99604.13;;;13.07;100.00
9059;BME280;4564;42.034;25.834;2023-04-15T05:05:02;99604.78;;;13.02;100.00
9059;BME280;4564;42.034;25.834;2023-04-15T05:07:29;99600.28;;;12.90;100.00
9059;BME280;4564;42.034;25.834;2023-04-15T05:09:57;99610.75;;;12.93;100.00
9059;BME280;4564;42.034;25.834;2023-04-15T05:12:23;99613.06;;;12.89;100.00
9059;BME280;4564;42.034;25.834;2023-04-15T05:14:50;99622.72;;;12.85;100.00
9059;BME280;4564;42.034;25.834;2023-04-15T05:17:17;99625.38;;;12.98;100.00
9059;BME280;4564;42.034;25.834;2023-04-15T05:19:43;99621.19;;;12.96;100.00
9059;BME280;4564;42.034;25.834;2023-04-15T05:22:10;99632.34;;;12.88;100.00
9059;BME280;4564;42.034;25.834;2023-04-15T05:24:36;99620.13;;;12.97;100.00
9059;BME280;4564;42.034;25.834;2023-04-15T05:27:04;99629.94;;;13.04;100.00
9059;BME280;4564;42.034;25.834;2023-04-15T05:29:32;99638.69;;;13.13;100.00
9059;BME280;4564;42.034;25.834;2023-04-15T05:31:59;99641.84;;;13.17;100.00
9059;BME280;4564;42.034;25.834;2023-04-15T05:34:25;99640.06;;;13.29;100.00
9059;BME280;4564;42.034;25.834;2023-04-15T05:36:52;99653.59;;;13.42;100.00
9059;BME280;4564;42.034;25.834;2023-04-15T05:39:18;99654.47;;;13.61;100.00
9059;BME280;4564;42.034;25.834;2023-04-15T05:41:45;99658.88;;;13.86;100.00
9059;BME280;4564;42.034;25.834;2023-04-15T05:44:13;99661.50;;;14.18;100.00
9059;BME280;4564;42.034;25.834;2023-04-15T05:46:40;99673.72;;;14.70;100.00
9059;BME280;4564;42.034;25.834;2023-04-15T05:49:06;99674.75;;;15.05;100.00
9059;BME280;4564;42.034;25.834;2023-04-15T05:51:33;99678.81;;;15.15;100.00
9059;BME280;4564;42.034;25.834;2023-04-15T05:54:00;99674.34;;;15.02;100.00
9059;BME280;4564;42.034;25.834;2023-04-15T05:56:26;99683.59;;;15.01;100.00
9059;BME280;4564;42.034;25.834;2023-04-15T05:58:53;99689.41;;;14.75;100.00
9059;BME280;4564;42.034;25.834;2023-04-15T06:01:22;99696.84;;;14.86;100.00
9059;BME280;4564;42.034;25.834;2023-04-15T06:03:48;99693.81;;;14.76;100.00
9059;BME280;4564;42.034;25.834;2023-04-15T06:06:15;99702.00;;;14.94;100.00
9059;BME280;4564;42.034;25.834;2023-04-15T06:08:42;99709.31;;;14.82;100.00
9059;BME280;4564;42.034;25.834;2023-04-15T06:11:08;99714.28;;;15.03;100.00
9059;BME280;4564;42.034;25.834;2023-04-15T06:13:35;99729.34;;;14.94;100.00
9059;BME280;4564;42.034;25.834;2023-04-15T06:16:02;99731.22;;;14.93;100.00
9059;BME280;4564;42.034;25.834;2023-04-15T06:18:30;99731.78;;;14.65;100.00
9059;BME280;4564;42.034;25.834;2023-04-15T06:20:57;99730.31;;;14.63;100.00
9059;BME280;4564;42.034;25.834;2023-04-15T06:23:24;99741.63;;;14.66;100.00
9059;BME280;4564;42.034;25.834;2023-04-15T06:25:50;99749.22;;;14.83;100.00
9059;BME280;4564;42.034;25.834;2023-04-15T06:28:17;99755.19;;;14.91;100.00
9059;BME280;4564;42.034;25.834;2023-04-15T06:30:44;99754.22;;;15.04;100.00
9059;BME280;4564;42.034;25.834;2023-04-15T06:33:11;99748.66;;;15.10;100.00
9059;BME280;4564;42.034;25.834;2023-04-15T06:35:39;99741.16;;;15.36;100.00
9059;BME280;4564;42.034;25.834;2023-04-15T06:38:06;99744.25;;;15.58;100.00
9059;BME280;4564;42.034;25.834;2023-04-15T06:40:32;99747.69;;;16.53;100.00
9059;BME280;4564;42.034;25.834;2023-04-15T06:42:59;99752.25;;;17.39;97.05
9059;BME280;4564;42.034;25.834;2023-04-15T06:45:25;99752.53;;;19.04;87.24
9059;BME280;4564;42.034;25.834;2023-04-15T06:47:52;99757.59;;;20.51;81.97
9059;BME280;4564;42.034;25.834;2023-04-15T06:50:19;99755.13;;;21.80;74.02
9059;BME280;4564;42.034;25.834;2023-04-15T06:52:47;99764.03;;;22.27;72.96
9059;BME280;4564;42.034;25.834;2023-04-15T06:55:13;99772.59;;;22.71;70.20
9059;BME280;4564;42.034;25.834;2023-04-15T06:57:40;99774.78;;;21.98;70.17
9059;BME280;4564;42.034;25.834;2023-04-15T07:00:07;99771.84;;;21.32;70.09
9059;BME280;4564;42.034;25.834;2023-04-15T07:02:35;99775.44;;;19.53;78.05
9059;BME280;4564;42.034;25.834;2023-04-15T07:05:01;99780.28;;;18.31;84.93
9059;BME280;4564;42.034;25.834;2023-04-15T07:07:28;99775.31;;;19.00;83.72
9059;BME280;4564;42.034;25.834;2023-04-15T07:09:56;99787.28;;;20.07;79.84
9059;BME280;4564;42.034;25.834;2023-04-15T07:12:23;99794.88;;;20.59;75.05
9059;BME280;4564;42.034;25.834;2023-04-15T07:14:50;99793.75;;;21.59;72.61
9059;BME280;4564;42.034;25.834;2023-04-15T07:17:16;99788.00;;;20.62;74.69
9059;BME280;4564;42.034;25.834;2023-04-15T07:19:43;99790.28;;;19.52;77.67
9059;BME280;4564;42.034;25.834;2023-04-15T07:22:10;99797.16;;;19.33;78.98
9059;BME280;4564;42.034;25.834;2023-04-15T07:24:36;99786.19;;;20.13;76.45
9059;BME280;4564;42.034;25.834;2023-04-15T07:27:04;99786.34;;;21.75;72.28
9059;BME280;4564;42.034;25.834;2023-04-15T07:29:31;99776.31;;;23.26;65.08
9059;BME280;4564;42.034;25.834;2023-04-15T07:31:58;99783.88;;;24.08;60.86
9059;BME280;4564;42.034;25.834;2023-04-15T07:34:24;99783.75;;;25.15;61.51
9059;BME280;4564;42.034;25.834;2023-04-15T07:36:51;99798.69;;;25.67;57.81
9059;BME280;4564;42.034;25.834;2023-04-15T07:39:18;99783.28;;;25.93;57.82
9059;BME280;4564;42.034;25.834;2023-04-15T07:41:44;99789.47;;;26.60;54.83
9059;BME280;4564;42.034;25.834;2023-04-15T07:44:13;99787.34;;;26.52;55.12
9059;BME280;4564;42.034;25.834;2023-04-15T07:46:40;99788.13;;;27.31;50.82
9059;BME280;4564;42.034;25.834;2023-04-15T07:49:06;99792.03;;;27.43;48.50
9059;BME280;4564;42.034;25.834;2023-04-15T07:51:33;99794.06;;;26.51;53.20
9059;BME280;4564;42.034;25.834;2023-04-15T07:54:00;99791.25;;;25.81;52.07
9059;BME280;4564;42.034;25.834;2023-04-15T07:56:27;99782.97;;;24.23;59.06
9059;BME280;4564;42.034;25.834;2023-04-15T07:58:54;99788.75;;;23.23;60.96
9059;BME280;4564;42.034;25.834;2023-04-15T08:01:22;99794.69;;;22.81;65.67
9059;BME280;4564;42.034;25.834;2023-04-15T08:03:48;99797.47;;;22.61;65.42
9059;BME280;4564;42.034;25.834;2023-04-15T08:06:16;99797.75;;;22.19;60.85
9059;BME280;4564;42.034;25.834;2023-04-15T08:08:44;99786.84;;;21.57;69.44
9059;BME280;4564;42.034;25.834;2023-04-15T08:11:14;99786.28;;;21.60;64.93
9059;BME280;4564;42.034;25.834;2023-04-15T08:13:41;99796.63;;;21.17;66.91
9059;BME280;4564;42.034;25.834;2023-04-15T08:16:16;99796.81;;;20.64;68.04
9059;BME280;4564;42.034;25.834;2023-04-15T08:18:45;99796.09;;;20.09;70.73
9059;BME280;4564;42.034;25.834;2023-04-15T08:21:11;99798.66;;;19.62;72.92
9059;BME280;4564;42.034;25.834;2023-04-15T08:23:39;99792.19;;;19.52;74.87
9059;BME280;4564;42.034;25.834;2023-04-15T08:26:05;99794.44;;;19.82;75.67
9059;BME280;4564;42.034;25.834;2023-04-15T08:28:32;99796.03;;;20.04;73.30
9059;BME280;4564;42.034;25.834;2023-04-15T08:31:00;99799.53;;;19.95;75.58
9059;BME280;4564;42.034;25.834;2023-04-15T08:33:26;99796.75;;;19.90;73.65
9059;BME280;4564;42.034;25.834;2023-04-15T08:35:55;99796.25;;;19.71;75.46
9059;BME280;4564;42.034;25.834;2023-04-15T08:38:22;99794.53;;;19.65;71.80
9059;BME280;4564;42.034;25.834;2023-04-15T08:40:49;99795.53;;;19.32;72.06
9059;BME280;4564;42.034;25.834;2023-04-15T08:43:17;99791.81;;;19.21;72.11
9059;BME280;4564;42.034;25.834;2023-04-15T08:45:46;99788.34;;;19.31;74.83
9059;BME280;4564;42.034;25.834;2023-04-15T08:48:15;99793.38;;;18.96;76.09
9059;BME280;4564;42.034;25.834;2023-04-15T08:50:42;99788.19;;;18.77;76.92
9059;BME280;4564;42.034;25.834;2023-04-15T08:53:11;99793.16;;;18.80;74.92
9059;BME280;4564;42.034;25.834;2023-04-15T08:55:38;99784.69;;;18.82;73.66
9059;BME280;4564;42.034;25.834;2023-04-15T08:58:09;99785.66;;;18.93;75.19
9059;BME280;4564;42.034;25.834;2023-04-15T09:00:36;99794.16;;;19.13;75.11
9059;BME280;4564;42.034;25.834;2023-04-15T09:03:03;99795.75;;;18.87;74.77
9059;BME280;4564;42.034;25.834;2023-04-15T09:05:31;99799.66;;;19.13;78.34
9059;BME280;4564;42.034;25.834;2023-04-15T09:07:57;99799.72;;;19.18;74.08
9059;BME280;4564;42.034;25.834;2023-04-15T09:10:25;99805.75;;;19.15;74.41
9059;BME280;4564;42.034;25.834;2023-04-15T09:12:52;99800.81;;;19.17;71.91
9059;BME280;4564;42.034;25.834;2023-04-15T09:15:19;99797.13;;;19.50;75.00
9059;BME280;4564;42.034;25.834;2023-04-15T09:17:46;99794.06;;;19.46;70.89
9059;BME280;4564;42.034;25.834;2023-04-15T09:20:15;99792.22;;;19.79;68.13
9059;BME280;4564;42.034;25.834;2023-04-15T09:22:44;99798.59;;;19.57;70.42
9059;BME280;4564;42.034;25.834;2023-04-15T09:25:30;99787.94;;;19.44;70.08
9059;BME280;4564;42.034;25.834;2023-04-15T09:27:57;99785.47;;;19.43;67.49
9059;BME280;4564;42.034;25.834;2023-04-15T09:30:24;99780.94;;;19.53;69.52
9059;BME280;4564;42.034;25.834;2023-04-15T09:32:51;99780.94;;;19.53;67.58
9059;BME280;4564;42.034;25.834;2023-04-15T09:35:18;99783.06;;;19.73;66.89
9059;BME280;4564;42.034;25.834;2023-04-15T09:37:45;99779.69;;;19.66;67.48
9059;BME280;4564;42.034;25.834;2023-04-15T09:40:11;99776.81;;;19.56;69.95
9059;BME280;4564;42.034;25.834;2023-04-15T09:45:22;99782.50;;;19.71;68.75
9059;BME280;4564;42.034;25.834;2023-04-15T09:47:49;99777.31;;;19.75;67.04
9059;BME280;4564;42.034;25.834;2023-04-15T09:50:17;99773.88;;;19.62;66.77
9059;BME280;4564;42.034;25.834;2023-04-15T09:52:44;99771.81;;;19.75;65.30
9059;BME280;4564;42.034;25.834;2023-04-15T09:55:11;99768.38;;;19.89;65.83
9059;BME280;4564;42.034;25.834;2023-04-15T09:57:38;99767.13;;;20.02;65.84
9059;BME280;4564;42.034;25.834;2023-04-15T10:00:06;99771.38;;;19.88;64.79
9059;BME280;4564;42.034;25.834;2023-04-15T10:02:35;99768.06;;;19.86;65.80
9059;BME280;4564;42.034;25.834;2023-04-15T10:05:02;99763.09;;;19.88;64.38
9059;BME280;4564;42.034;25.834;2023-04-15T10:07:29;99749.19;;;19.73;64.48
9059;BME280;4564;42.034;25.834;2023-04-15T10:09:56;99752.38;;;19.86;64.48
9059;BME280;4564;42.034;25.834;2023-04-15T10:12:25;99740.59;;;19.96;64.96
9059;BME280;4564;42.034;25.834;2023-04-15T10:14:55;99746.66;;;19.98;65.79
9059;BME280;4564;42.034;25.834;2023-04-15T10:17:24;99744.19;;;19.96;63.35
9059;BME280;4564;42.034;25.834;2023-04-15T10:19:53;99732.75;;;19.83;62.29
9059;BME280;4564;42.034;25.834;2023-04-15T10:22:20;99722.50;;;20.05;62.76
9059;BME280;4564;42.034;25.834;2023-04-15T10:24:47;99724.19;;;20.11;61.20
9059;BME280;4564;42.034;25.834;2023-04-15T10:27:15;99724.34;;;19.94;61.51
9059;BME280;4564;42.034;25.834;2023-04-15T10:29:42;99720.56;;;20.05;71.76
9059;BME280;4564;42.034;25.834;2023-04-15T10:32:09;99723.53;;;19.99;72.86
9059;BME280;4564;42.034;25.834;2023-04-15T10:34:36;99710.59;;;19.99;71.66
9059;BME280;4564;42.034;25.834;2023-04-15T10:37:04;99711.19;;;20.01;73.35
9059;BME280;4564;42.034;25.834;2023-04-15T10:39:38;99709.22;;;19.97;73.04
9059;BME280;4564;42.034;25.834;2023-04-15T10:42:06;99711.09;;;19.91;72.03
9059;BME280;4564;42.034;25.834;2023-04-15T10:44:33;99703.44;;;19.98;72.02
9059;BME280;4564;42.034;25.834;2023-04-15T10:47:03;99707.16;;;20.19;70.91
9059;BME280;4564;42.034;25.834;2023-04-15T10:49:30;99695.72;;;20.32;68.47
9059;BME280;4564;42.034;25.834;2023-04-15T10:51:57;99701.09;;;20.17;68.21
9059;BME280;4564;42.034;25.834;2023-04-15T10:54:31;99689.53;;;20.20;68.03
9059;BME280;4564;42.034;25.834;2023-04-15T10:57:07;99681.56;;;20.19;67.25
9059;BME280;4564;42.034;25.834;2023-04-15T10:59:35;99684.56;;;20.17;68.25
9059;BME280;4564;42.034;25.834;2023-04-15T11:02:02;99681.28;;;20.20;67.37
9059;BME280;4564;42.034;25.834;2023-04-15T11:07:15;99681.28;;;20.20;65.44
9059;BME280;4564;42.034;25.834;2023-04-15T11:09:59;99680.84;;;20.33;64.91
9059;BME280;4564;42.034;25.834;2023-04-15T11:12:32;99677.00;;;20.34;65.98
9059;BME280;4564;42.034;25.834;2023-04-15T11:14:59;99667.09;;;20.38;67.01
9059;BME280;4564;42.034;25.834;2023-04-15T11:17:46;99662.78;;;20.58;64.96
9059;BME280;4564;42.034;25.834;2023-04-15T11:20:13;99663.41;;;20.70;66.67
9059;BME280;4564;42.034;25.834;2023-04-15T11:22:45;99662.06;;;20.77;62.74
9059;BME280;4564;42.034;25.834;2023-04-15T11:25:22;99654.91;;;20.81;61.46
9059;BME280;4564;42.034;25.834;2023-04-15T11:27:49;99650.19;;;20.72;62.96
9059;BME280;4564;42.034;25.834;2023-04-15T11:30:19;99651.59;;;20.84;64.24
9059;BME280;4564;42.034;25.834;2023-04-15T11:32:47;99646.66;;;20.91;60.15
9059;BME280;4564;42.034;25.834;2023-04-15T11:35:14;99647.59;;;21.22;61.38
9059;BME280;4564;42.034;25.834;2023-04-15T11:37:42;99646.81;;;21.37;59.88
9059;BME280;4564;42.034;25.834;2023-04-15T11:40:09;99649.28;;;21.39;60.83
9059;BME280;4564;42.034;25.834;2023-04-15T11:42:37;99648.75;;;21.42;59.38
9059;BME280;4564;42.034;25.834;2023-04-15T11:45:07;99640.16;;;21.23;59.93
9059;BME280;4564;42.034;25.834;2023-04-15T11:47:34;99647.00;;;21.10;60.58
9059;BME280;4564;42.034;25.834;2023-04-15T11:50:12;99645.88;;;21.06;60.94
9059;BME280;4564;42.034;25.834;2023-04-15T11:52:39;99639.72;;;20.84;62.07
9059;BME280;4564;42.034;25.834;2023-04-15T11:55:06;99638.09;;;20.83;59.63
9059;BME280;4564;42.034;25.834;2023-04-15T11:57:33;99639.81;;;21.04;60.20
9059;BME280;4564;42.034;25.834;2023-04-15T12:00:02;99634.09;;;21.31;57.80
9059;BME280;4564;42.034;25.834;2023-04-15T12:02:29;99627.75;;;21.56;56.63
9059;BME280;4564;42.034;25.834;2023-04-15T12:05:01;99633.28;;;21.76;56.46
9059;BME280;4564;42.034;25.834;2023-04-15T12:07:28;99623.06;;;21.87;55.62
9059;BME280;4564;42.034;25.834;2023-04-15T12:09:55;99613.69;;;21.98;53.67
9059;BME280;4564;42.034;25.834;2023-04-15T12:12:25;99619.47;;;21.81;54.20
9059;BME280;4564;42.034;25.834;2023-04-15T12:14:52;99616.75;;;21.96;52.30
9059;BME280;4564;42.034;25.834;2023-04-15T12:17:20;99613.97;;;21.91;50.87
9059;BME280;4564;42.034;25.834;2023-04-15T12:19:54;99611.72;;;21.88;50.37
9059;BME280;4564;42.034;25.834;2023-04-15T12:22:21;99622.28;;;21.96;49.72
9059;BME280;4564;42.034;25.834;2023-04-15T12:24:52;99618.09;;;22.04;47.98
9059;BME280;4564;42.034;25.834;2023-04-15T12:27:24;99615.06;;;22.05;48.33
9059;BME280;4564;42.034;25.834;2023-04-15T12:29:54;99613.06;;;22.31;48.92
9059;BME280;4564;42.034;25.834;2023-04-15T12:32:30;99625.41;;;22.59;46.47
9059;BME280;4564;42.034;25.834;2023-04-15T12:35:00;99615.13;;;22.80;46.35
9059;BME280;4564;42.034;25.834;2023-04-15T12:37:27;99615.53;;;23.07;46.52
9059;BME280;4564;42.034;25.834;2023-04-15T12:39:53;99617.44;;;23.12;45.77
9059;BME280;4564;42.034;25.834;2023-04-15T12:42:20;99615.34;;;22.93;50.73
9059;BME280;4564;42.034;25.834;2023-04-15T12:44:46;99624.25;;;22.80;52.92
9059;BME280;4564;42.034;25.834;2023-04-15T12:47:13;99613.00;;;22.46;51.13
9059;BME280;4564;42.034;25.834;2023-04-15T12:49:41;99619.94;;;22.49;53.02
9059;BME280;4564;42.034;25.834;2023-04-15T12:52:07;99610.59;;;22.19;53.72
9059;BME280;4564;42.034;25.834;2023-04-15T12:54:34;99608.94;;;22.29;53.98
9059;BME280;4564;42.034;25.834;2023-04-15T12:57:01;99600.38;;;22.15;55.42
9059;BME280;4564;42.034;25.834;2023-04-15T12:59:28;99597.38;;;22.11;55.79
9059;BME280;4564;42.034;25.834;2023-04-15T13:01:54;99602.06;;;22.11;56.06
9059;BME280;4564;42.034;25.834;2023-04-15T13:04:21;99593.47;;;21.92;56.13
9059;BME280;4564;42.034;25.834;2023-04-15T13:06:49;99586.88;;;21.88;53.65
9059;BME280;4564;42.034;25.834;2023-04-15T13:09:16;99586.63;;;21.95;54.57
9059;BME280;4564;42.034;25.834;2023-04-15T13:11:42;99588.50;;;22.14;53.20